Terminal Aerodrome Forecast
Issued by NWS

Home | Current Version | Previous Version | Text Only | Print | Product List | Glossary On
Versions: 1 2 3 4 5 6 7 8 9 10 11 12 13 14 15 16 17 18 19 20 21 22 23 24 25 26 27 28 29 30 31 32
000
FTAK31 PANC 061735
TAFAIL
TAF
PAIL 061735Z 0618/0718 36008KT P6SM VCSH SCT020 OVC035
      TEMPO 0618/0622 -SN BKN020 OVC035
     FM062300 34008KT P6SM BKN035 OVC050
     FM070400 34008KT P6SM SCT010 OVC035
     FM071300 34009KT P6SM FEW035=

USA.gov is the U.S. government's official web portal to all federal, state and local government web resources and services.